EIN40X LIRF-EIDW
Flight info
| Callsign | EIN40X |
|---|---|
| Flight time | N/A |
| Altitude | 38000 |
| Route | NEMBO DCT GOVGO DCT AOSTA DCT ORSUD DCT MOLUS DCT IBODI DCT GOTED DCT TRO DCT CLM DCT KOPOR DCT VESAN DCT RATUK DCT SOVAT L613 SANDY L722 ICTAM T421 DIDZA DCT CESQA DCT BIBPE DCT OKTAD DCT MEDOG DCT KRAGY DCT PEMOB M17 VATRY VATRY4L |
| Aircraft | A21N/M-SDE2E3FGHIJ1RWXY/LB1 |
Departure
| Time | N/A |
|---|---|
| Airport | Rome–Fiumicino Leonardo da Vinci International Airport (LIRF) |
Arrival
| Time | 2026-05-05 18:52 |
|---|---|
| Airport | Dublin Airport (EIDW) |
| Time | Latitude | Longitude | Altitude | Speed | Heading |
|---|---|---|---|---|---|
| 2026-05-05 17:54 | 50.08901 | 2.15867 | 37841 ft | 455 kts | 343° |
| 2026-05-05 17:54 | 50.12185 | 2.14343 | 37842 ft | 454 kts | 343° |
| 2026-05-05 17:55 | 50.19095 | 2.11130 | 37850 ft | 454 kts | 343° |
| 2026-05-05 17:55 | 50.25665 | 2.08065 | 37852 ft | 454 kts | 343° |
| 2026-05-05 17:56 | 50.32632 | 2.04416 | 37860 ft | 454 kts | 336° |
| 2026-05-05 17:56 | 50.38968 | 1.99291 | 37864 ft | 453 kts | 327° |
| 2026-05-05 17:57 | 50.44649 | 1.92646 | 37858 ft | 452 kts | 318° |
| 2026-05-05 17:57 | 50.50075 | 1.85184 | 37686 ft | 451 kts | 318° |
| 2026-05-05 17:57 | 50.52875 | 1.81318 | 37804 ft | 452 kts | 318° |
| 2026-05-05 17:58 | 50.55542 | 1.77648 | 37841 ft | 453 kts | 318° |
| 2026-05-05 17:58 | 50.61068 | 1.70049 | 38005 ft | 452 kts | 318° |
| 2026-05-05 17:59 | 50.66553 | 1.62492 | 37910 ft | 451 kts | 318° |
| 2026-05-05 17:59 | 50.72013 | 1.54937 | 37878 ft | 451 kts | 318° |
| 2026-05-05 18:00 | 50.77239 | 1.47676 | 37879 ft | 451 kts | 318° |
| 2026-05-05 18:00 | 50.82571 | 1.40261 | 37881 ft | 451 kts | 318° |
| 2026-05-05 18:01 | 50.87752 | 1.33035 | 37687 ft | 451 kts | 317° |
| 2026-05-05 18:01 | 50.90321 | 1.29439 | 37815 ft | 452 kts | 317° |
| 2026-05-05 18:01 | 50.92812 | 1.25947 | 37867 ft | 452 kts | 317° |
| 2026-05-05 18:02 | 50.97975 | 1.18691 | 37908 ft | 452 kts | 317° |
| 2026-05-05 18:02 | 51.02846 | 1.11134 | 37914 ft | 451 kts | 309° |
| 2026-05-05 18:03 | 51.06757 | 1.02359 | 37909 ft | 449 kts | 298° |
| 2026-05-05 18:03 | 51.09521 | 0.92743 | 37916 ft | 447 kts | 288° |
| 2026-05-05 18:04 | 51.11668 | 0.82818 | 37917 ft | 447 kts | 287° |
| 2026-05-05 18:04 | 51.13779 | 0.72934 | 37918 ft | 447 kts | 287° |
| 2026-05-05 18:05 | 51.16022 | 0.62479 | 37917 ft | 447 kts | 287° |
| 2026-05-05 18:05 | 51.18109 | 0.52219 | 37916 ft | 446 kts | 286° |
| 2026-05-05 18:06 | 51.20143 | 0.41848 | 37916 ft | 446 kts | 286° |
| 2026-05-05 18:06 | 51.22118 | 0.31745 | 37919 ft | 446 kts | 285° |
| 2026-05-05 18:07 | 51.24044 | 0.21862 | 37920 ft | 446 kts | 285° |
| 2026-05-05 18:07 | 51.25982 | 0.11866 | 37919 ft | 447 kts | 285° |
| 2026-05-05 18:08 | 51.27946 | 0.01689 | 37918 ft | 446 kts | 286° |
| 2026-05-05 18:08 | 51.29913 | -0.08554 | 37919 ft | 446 kts | 285° |
| 2026-05-05 18:09 | 51.31866 | -0.18780 | 37916 ft | 446 kts | 286° |
| 2026-05-05 18:09 | 51.33855 | -0.29250 | 37917 ft | 446 kts | 285° |
| 2026-05-05 18:10 | 51.35814 | -0.39629 | 38023 ft | 446 kts | 286° |
| 2026-05-05 18:10 | 51.37768 | -0.50042 | 37949 ft | 444 kts | 286° |
| 2026-05-05 18:11 | 51.39687 | -0.60315 | 37930 ft | 444 kts | 286° |
| 2026-05-05 18:11 | 51.41545 | -0.70315 | 37926 ft | 444 kts | 285° |
| 2026-05-05 18:12 | 51.43367 | -0.80176 | 37924 ft | 444 kts | 285° |
| 2026-05-05 18:12 | 51.45242 | -0.90379 | 37926 ft | 444 kts | 285° |
| 2026-05-05 18:13 | 51.47133 | -1.00731 | 37929 ft | 444 kts | 285° |
| 2026-05-05 18:13 | 51.49022 | -1.11140 | 37921 ft | 443 kts | 285° |
| 2026-05-05 18:14 | 51.50892 | -1.21486 | 37931 ft | 443 kts | 285° |
| 2026-05-05 18:14 | 51.52728 | -1.31704 | 37934 ft | 443 kts | 285° |
| 2026-05-05 18:15 | 51.54593 | -1.42143 | 37937 ft | 443 kts | 285° |
| 2026-05-05 18:15 | 51.56410 | -1.52372 | 37944 ft | 442 kts | 285° |
| 2026-05-05 18:16 | 51.58244 | -1.62770 | 37951 ft | 442 kts | 285° |
| 2026-05-05 18:16 | 51.59964 | -1.72567 | 37950 ft | 442 kts | 285° |
| 2026-05-05 18:17 | 51.61680 | -1.82394 | 37951 ft | 442 kts | 285° |
| 2026-05-05 18:17 | 51.63440 | -1.92524 | 37791 ft | 442 kts | 284° |
| 2026-05-05 18:18 | 51.65241 | -2.02959 | 37907 ft | 443 kts | 285° |
| 2026-05-05 18:18 | 51.67007 | -2.13256 | 37947 ft | 443 kts | 285° |
| 2026-05-05 18:19 | 51.68751 | -2.23483 | 37962 ft | 443 kts | 285° |
| 2026-05-05 18:19 | 51.70531 | -2.33978 | 37963 ft | 443 kts | 285° |
| 2026-05-05 18:20 | 51.72259 | -2.44231 | 37967 ft | 443 kts | 285° |
| 2026-05-05 18:20 | 51.74037 | -2.54839 | 37973 ft | 442 kts | 285° |
| 2026-05-05 18:21 | 51.75744 | -2.65094 | 37967 ft | 442 kts | 284° |
| 2026-05-05 18:21 | 51.77432 | -2.75298 | 37970 ft | 442 kts | 284° |
| 2026-05-05 18:22 | 51.79147 | -2.85716 | 37965 ft | 442 kts | 284° |
| 2026-05-05 18:22 | 51.80919 | -2.96548 | 37968 ft | 443 kts | 284° |
| 2026-05-05 18:23 | 51.82643 | -3.07157 | 37972 ft | 443 kts | 284° |
| 2026-05-05 18:23 | 51.84389 | -3.17972 | 37977 ft | 442 kts | 285° |
| 2026-05-05 18:24 | 51.86116 | -3.28742 | 37980 ft | 442 kts | 284° |
| 2026-05-05 18:24 | 51.87877 | -3.39792 | 37982 ft | 442 kts | 284° |
| 2026-05-05 18:25 | 51.89664 | -3.51078 | 37984 ft | 442 kts | 284° |
| 2026-05-05 18:25 | 51.91429 | -3.62308 | 37985 ft | 442 kts | 284° |
| 2026-05-05 18:26 | 51.93182 | -3.73537 | 37987 ft | 441 kts | 284° |
| 2026-05-05 18:26 | 51.94892 | -3.84566 | 37989 ft | 440 kts | 284° |
| 2026-05-05 18:27 | 51.96637 | -3.95902 | 37991 ft | 440 kts | 284° |
| 2026-05-05 18:27 | 51.98381 | -4.07304 | 37994 ft | 440 kts | 284° |
| 2026-05-05 18:28 | 52.00938 | -4.24175 | 37999 ft | 440 kts | 284° |
| 2026-05-05 18:28 | 52.02654 | -4.35597 | 38000 ft | 439 kts | 284° |
| 2026-05-05 18:29 | 52.04367 | -4.47085 | 38004 ft | 438 kts | 284° |
| 2026-05-05 18:29 | 52.06089 | -4.58728 | 38006 ft | 438 kts | 284° |
| 2026-05-05 18:30 | 52.07776 | -4.70215 | 38007 ft | 439 kts | 283° |
| 2026-05-05 18:30 | 52.09438 | -4.81612 | 38015 ft | 438 kts | 283° |
| 2026-05-05 18:31 | 52.11061 | -4.92833 | 38021 ft | 438 kts | 283° |
| 2026-05-05 18:31 | 52.12752 | -5.04322 | 37622 ft | 437 kts | 287° |
| 2026-05-05 18:32 | 52.14079 | -5.09611 | 36639 ft | 437 kts | 298° |
| 2026-05-05 18:32 | 52.15931 | -5.14260 | 35589 ft | 442 kts | 308° |
| 2026-05-05 18:32 | 52.18162 | -5.18111 | 34302 ft | 445 kts | 318° |
| 2026-05-05 18:32 | 52.20858 | -5.21381 | 32716 ft | 447 kts | 328° |
| 2026-05-05 18:33 | 52.23808 | -5.23977 | 31088 ft | 448 kts | 332° |
| 2026-05-05 18:33 | 52.26753 | -5.26360 | 29869 ft | 437 kts | 333° |
| 2026-05-05 18:33 | 52.29546 | -5.28602 | 28955 ft | 421 kts | 333° |
| 2026-05-05 18:33 | 52.32317 | -5.30844 | 28399 ft | 411 kts | 333° |
| 2026-05-05 18:34 | 52.35017 | -5.33050 | 27878 ft | 408 kts | 332° |
| 2026-05-05 18:34 | 52.37629 | -5.35198 | 27379 ft | 405 kts | 332° |
| 2026-05-05 18:34 | 52.40245 | -5.37353 | 26885 ft | 402 kts | 332° |
| 2026-05-05 18:34 | 52.42893 | -5.39541 | 26373 ft | 399 kts | 332° |
| 2026-05-05 18:35 | 52.45515 | -5.41714 | 25867 ft | 395 kts | 332° |
| 2026-05-05 18:35 | 52.48081 | -5.43843 | 25373 ft | 392 kts | 332° |
| 2026-05-05 18:35 | 52.50621 | -5.45954 | 24883 ft | 389 kts | 332° |
| 2026-05-05 18:35 | 52.53241 | -5.48111 | 24376 ft | 386 kts | 333° |
| 2026-05-05 18:36 | 52.55843 | -5.49975 | 23893 ft | 382 kts | 337° |
| 2026-05-05 18:36 | 52.58412 | -5.51483 | 23776 ft | 375 kts | 340° |
| 2026-05-05 18:36 | 52.61037 | -5.52859 | 23306 ft | 374 kts | 341° |
| 2026-05-05 18:36 | 52.63709 | -5.54225 | 22823 ft | 371 kts | 341° |
| 2026-05-05 18:37 | 52.66236 | -5.55518 | 22365 ft | 368 kts | 341° |
| 2026-05-05 18:37 | 52.68815 | -5.56841 | 21894 ft | 365 kts | 341° |
| 2026-05-05 18:37 | 52.71379 | -5.58160 | 21424 ft | 362 kts | 341° |
| 2026-05-05 18:37 | 52.73994 | -5.59506 | 20899 ft | 360 kts | 341° |
| 2026-05-05 18:38 | 52.76566 | -5.60830 | 20390 ft | 358 kts | 341° |
| 2026-05-05 18:38 | 52.79128 | -5.62153 | 19894 ft | 356 kts | 341° |
| 2026-05-05 18:38 | 52.81692 | -5.63479 | 19408 ft | 353 kts | 341° |
| 2026-05-05 18:38 | 52.84251 | -5.64873 | 18905 ft | 349 kts | 336° |
| 2026-05-05 18:39 | 52.86314 | -5.67289 | 18490 ft | 340 kts | 314° |
| 2026-05-05 18:39 | 52.88042 | -5.70277 | 18024 ft | 336 kts | 312° |
| 2026-05-05 18:39 | 52.89799 | -5.73362 | 17056 ft | 333 kts | 313° |
| 2026-05-05 18:39 | 52.91499 | -5.76299 | 16023 ft | 332 kts | 314° |
| 2026-05-05 18:40 | 52.93195 | -5.79181 | 15052 ft | 328 kts | 314° |
| 2026-05-05 18:40 | 52.94921 | -5.82085 | 14070 ft | 323 kts | 315° |
| 2026-05-05 18:40 | 52.96676 | -5.85019 | 13069 ft | 319 kts | 315° |
| 2026-05-05 18:40 | 52.98509 | -5.88072 | 12020 ft | 315 kts | 315° |
| 2026-05-05 18:41 | 53.00279 | -5.91017 | 11006 ft | 311 kts | 315° |
| 2026-05-05 18:41 | 53.02072 | -5.94003 | 10070 ft | 303 kts | 316° |
| 2026-05-05 18:41 | 53.03845 | -5.96955 | 9474 ft | 284 kts | 316° |
| 2026-05-05 18:41 | 53.05515 | -5.99739 | 8778 ft | 274 kts | 316° |
| 2026-05-05 18:42 | 53.07138 | -6.02448 | 7962 ft | 268 kts | 316° |
| 2026-05-05 18:42 | 53.08714 | -6.05081 | 7138 ft | 263 kts | 316° |
| 2026-05-05 18:42 | 53.10241 | -6.07635 | 6165 ft | 265 kts | 316° |
| 2026-05-05 18:42 | 53.11834 | -6.10298 | 4864 ft | 276 kts | 317° |
| 2026-05-05 18:43 | 53.13512 | -6.13101 | 3798 ft | 314 kts | 317° |
| 2026-05-05 18:43 | 53.15419 | -6.16288 | 3149 ft | 328 kts | 317° |
| 2026-05-05 18:43 | 53.17358 | -6.19542 | 2992 ft | 331 kts | 316° |
| 2026-05-05 18:43 | 53.19333 | -6.22861 | 2984 ft | 341 kts | 316° |
| 2026-05-05 18:44 | 53.21308 | -6.26188 | 2990 ft | 342 kts | 316° |
| 2026-05-05 18:44 | 53.23329 | -6.29597 | 2992 ft | 343 kts | 316° |
| 2026-05-05 18:44 | 53.25329 | -6.32976 | 2990 ft | 343 kts | 316° |
| 2026-05-05 18:44 | 53.27285 | -6.36285 | 2988 ft | 343 kts | 316° |
| 2026-05-05 18:45 | 53.29281 | -6.39666 | 2990 ft | 344 kts | 316° |
| 2026-05-05 18:45 | 53.31272 | -6.43044 | 2990 ft | 344 kts | 316° |
| 2026-05-05 18:45 | 53.33267 | -6.46434 | 2991 ft | 345 kts | 316° |
| 2026-05-05 18:45 | 53.35288 | -6.49873 | 2989 ft | 340 kts | 316° |
| 2026-05-05 18:46 | 53.37210 | -6.53154 | 2986 ft | 314 kts | 316° |
| 2026-05-05 18:46 | 53.38980 | -6.56183 | 2985 ft | 290 kts | 317° |
| 2026-05-05 18:46 | 53.40608 | -6.58970 | 2984 ft | 267 kts | 317° |
| 2026-05-05 18:46 | 53.42130 | -6.61575 | 2986 ft | 253 kts | 317° |
| 2026-05-05 18:47 | 53.43586 | -6.64068 | 2981 ft | 239 kts | 317° |
| 2026-05-05 18:47 | 53.45110 | -6.65895 | 2951 ft | 215 kts | 348° |
| 2026-05-05 18:47 | 53.46756 | -6.65471 | 2958 ft | 198 kts | 35° |
| 2026-05-05 18:47 | 53.47574 | -6.63103 | 2977 ft | 202 kts | 84° |
| 2026-05-05 18:48 | 53.47191 | -6.60349 | 3066 ft | 201 kts | 108° |
| 2026-05-05 18:48 | 53.46539 | -6.57915 | 3023 ft | 180 kts | 111° |
| 2026-05-05 18:48 | 53.45923 | -6.55744 | 2965 ft | 159 kts | 110° |
| 2026-05-05 18:48 | 53.45405 | -6.53719 | 2982 ft | 154 kts | 103° |
| 2026-05-05 18:49 | 53.45085 | -6.51652 | 2976 ft | 151 kts | 96° |
| 2026-05-05 18:49 | 53.44911 | -6.49594 | 2794 ft | 141 kts | 90° |
| 2026-05-05 18:49 | 53.44809 | -6.47689 | 2547 ft | 137 kts | 89° |
| 2026-05-05 18:49 | 53.44711 | -6.45819 | 2315 ft | 136 kts | 90° |
| 2026-05-05 18:50 | 53.44608 | -6.43939 | 2086 ft | 135 kts | 90° |
| 2026-05-05 18:50 | 53.44503 | -6.42087 | 1875 ft | 135 kts | 90° |
| 2026-05-05 18:50 | 53.44398 | -6.40257 | 1674 ft | 135 kts | 90° |
| 2026-05-05 18:50 | 53.44294 | -6.38420 | 1475 ft | 133 kts | 91° |
| 2026-05-05 18:51 | 53.44194 | -6.36646 | 1268 ft | 134 kts | 91° |
| 2026-05-05 18:51 | 53.44096 | -6.34887 | 1070 ft | 131 kts | 93° |
| 2026-05-05 18:51 | 53.43999 | -6.33164 | 869 ft | 133 kts | 92° |
| 2026-05-05 18:51 | 53.43906 | -6.31421 | 677 ft | 128 kts | 94° |
| 2026-05-05 18:52 | 53.43814 | -6.29748 | 433 ft | 128 kts | 94° |
| 2026-05-05 18:52 | 53.43723 | -6.28161 | 273 ft | 121 kts | 95° |
| 2026-05-05 18:52 | 53.43647 | -6.26734 | 228 ft | 90 kts | 95° |
| 2026-05-05 18:52 | 53.43605 | -6.25960 | 217 ft | 30 kts | 97° |
| 2026-05-05 18:53 | 53.43591 | -6.25709 | 213 ft | 17 kts | 94° |
| 2026-05-05 18:53 | 53.43576 | -6.25473 | 211 ft | 18 kts | 102° |
| 2026-05-05 18:53 | 53.43528 | -6.25234 | 208 ft | 19 kts | 115° |
| 2026-05-05 18:53 | 53.43459 | -6.25020 | 208 ft | 19 kts | 119° |
| 2026-05-05 18:54 | 53.43389 | -6.24818 | 208 ft | 18 kts | 117° |
| 2026-05-05 18:54 | 53.43357 | -6.24594 | 209 ft | 17 kts | 96° |
| 2026-05-05 18:54 | 53.43316 | -6.24423 | 213 ft | 14 kts | 156° |
| 2026-05-05 18:54 | 53.43226 | -6.24426 | 216 ft | 12 kts | 205° |
| 2026-05-05 18:55 | 53.43194 | -6.24577 | 212 ft | 15 kts | 274° |
| 2026-05-05 18:55 | 53.43208 | -6.24797 | 208 ft | 18 kts | 276° |
| 2026-05-05 18:55 | 53.43221 | -6.25038 | 208 ft | 18 kts | 276° |
| 2026-05-05 18:55 | 53.43234 | -6.25276 | 210 ft | 17 kts | 269° |
| 2026-05-05 18:56 | 53.43149 | -6.25384 | 211 ft | 16 kts | 172° |
| 2026-05-05 18:56 | 53.43039 | -6.25316 | 211 ft | 16 kts | 156° |
| 2026-05-05 18:56 | 53.42924 | -6.25228 | 209 ft | 17 kts | 154° |
| 2026-05-05 18:56 | 53.42799 | -6.25142 | 208 ft | 18 kts | 168° |
| 2026-05-05 18:57 | 53.42671 | -6.25087 | 208 ft | 18 kts | 157° |
| 2026-05-05 18:57 | 53.42544 | -6.24991 | 205 ft | 19 kts | 155° |
| 2026-05-05 18:57 | 53.42410 | -6.24889 | 202 ft | 20 kts | 153° |
| 2026-05-05 18:57 | 53.42399 | -6.24703 | 203 ft | 17 kts | 60° |
| 2026-05-05 18:58 | 53.42448 | -6.24559 | 207 ft | 2 kts | 60° |
| 2026-05-05 18:58 | 53.42450 | -6.24541 | 207 ft | 1 kts | 96° |
| 2026-05-05 18:58 | 53.42448 | -6.24525 | 207 ft | 2 kts | 99° |
| 2026-05-05 18:58 | 53.42439 | -6.24481 | 208 ft | 6 kts | 127° |
| 2026-05-05 18:59 | 53.42418 | -6.24447 | 207 ft | 0 kts | 134° |
| 2026-05-05 18:59 | 53.42414 | -6.24440 | 207 ft | 0 kts | 135° |